createdAt,value
2022-08-26T00:01:30.724Z,27.50
2022-08-26T00:03:57.358Z,27.49
2022-08-26T00:06:24.452Z,27.51
2022-08-26T00:08:51.219Z,27.46
2022-08-26T00:11:26.790Z,27.46
2022-08-26T00:13:54.416Z,27.47
2022-08-26T00:16:21.046Z,27.44
2022-08-26T00:18:47.615Z,27.38
2022-08-26T00:21:14.188Z,27.30
2022-08-26T00:23:40.732Z,27.23
2022-08-26T00:26:29.229Z,27.16
2022-08-26T00:28:56.511Z,27.07
2022-08-26T00:31:23.071Z,27.00
2022-08-26T00:33:49.782Z,26.89
2022-08-26T00:36:20.274Z,26.84
2022-08-26T00:38:48.046Z,26.79
2022-08-26T00:41:14.660Z,26.77
2022-08-26T00:43:47.562Z,26.75
2022-08-26T00:46:18.459Z,26.68
2022-08-26T00:48:47.040Z,26.63
2022-08-26T00:51:18.183Z,26.61
2022-08-26T00:53:57.526Z,26.62
2022-08-26T00:56:28.573Z,26.59
2022-08-26T00:58:56.795Z,26.55
2022-08-26T01:01:23.530Z,26.50
2022-08-26T01:03:50.910Z,26.46
2022-08-26T01:06:19.104Z,26.43
2022-08-26T01:08:45.756Z,26.43
2022-08-26T01:11:12.682Z,26.40
2022-08-26T01:13:39.786Z,26.41
2022-08-26T01:16:08.292Z,26.38
2022-08-26T01:18:35.980Z,26.33
2022-08-26T01:21:19.034Z,26.30
2022-08-26T01:23:48.027Z,26.26
2022-08-26T01:26:25.070Z,26.22
2022-08-26T01:28:55.895Z,26.18
2022-08-26T01:31:25.011Z,26.14
2022-08-26T01:33:55.487Z,26.16
2022-08-26T01:36:24.386Z,26.13
2022-08-26T01:38:51.879Z,26.11
2022-08-26T01:41:19.878Z,26.10
2022-08-26T01:43:55.682Z,26.04
2022-08-26T01:46:22.958Z,26.04
2022-08-26T01:48:54.651Z,26.11
2022-08-26T01:51:22.752Z,26.13
2022-08-26T01:53:50.548Z,26.11
2022-08-26T01:56:17.156Z,26.05
2022-08-26T01:58:51.248Z,25.99
2022-08-26T02:01:19.147Z,25.93
2022-08-26T02:03:56.787Z,25.88
2022-08-26T02:06:25.850Z,25.83
2022-08-26T02:08:55.356Z,25.85
2022-08-26T02:11:22.065Z,25.87
2022-08-26T02:13:52.005Z,25.84
2022-08-26T02:16:21.860Z,25.79
2022-08-26T02:18:49.069Z,25.73
2022-08-26T02:21:19.265Z,25.71
2022-08-26T02:23:46.360Z,25.71
2022-08-26T02:26:18.126Z,25.69
2022-08-26T02:28:55.651Z,25.66
2022-08-26T02:31:22.842Z,25.62
2022-08-26T02:33:49.486Z,25.59
2022-08-26T02:36:21.134Z,25.63
2022-08-26T02:38:47.837Z,25.67
2022-08-26T02:41:14.600Z,25.64
2022-08-26T02:43:41.361Z,25.58
2022-08-26T02:46:07.972Z,25.51
2022-08-26T02:48:35.440Z,25.48
2022-08-26T02:51:02.506Z,25.51
2022-08-26T02:53:31.887Z,25.53
2022-08-26T02:55:58.882Z,25.52
2022-08-26T02:58:26.387Z,25.47
2022-08-26T03:00:53.779Z,25.45
2022-08-26T03:03:23.478Z,25.45
2022-08-26T03:05:50.456Z,25.46
2022-08-26T03:08:17.382Z,25.45
2022-08-26T03:10:44.186Z,25.42
2022-08-26T03:13:11.407Z,25.40
2022-08-26T03:15:38.888Z,25.35
2022-08-26T03:18:05.504Z,25.29
2022-08-26T03:20:34.273Z,25.18
2022-08-26T03:23:01.388Z,25.11
2022-08-26T03:25:30.443Z,25.09
2022-08-26T03:27:57.044Z,25.06
2022-08-26T03:30:45.425Z,25.01
2022-08-26T03:33:13.742Z,24.95
2022-08-26T03:35:41.666Z,24.87
2022-08-26T03:38:08.473Z,24.88
2022-08-26T03:40:36.581Z,24.90
2022-08-26T03:43:04.086Z,24.92
2022-08-26T03:45:31.130Z,24.91
2022-08-26T03:47:58.362Z,24.94
2022-08-26T03:50:25.043Z,24.97
2022-08-26T03:52:53.968Z,25.01
2022-08-26T03:55:23.883Z,25.03
2022-08-26T03:57:52.576Z,24.98
2022-08-26T04:00:19.795Z,24.95
2022-08-26T04:02:48.713Z,24.99
2022-08-26T04:05:17.420Z,24.97
2022-08-26T04:07:44.921Z,24.98
2022-08-26T04:10:13.203Z,24.97
2022-08-26T04:12:39.947Z,24.95
2022-08-26T04:15:11.621Z,24.87
2022-08-26T04:17:38.203Z,24.88
2022-08-26T04:20:05.942Z,24.87
2022-08-26T04:22:33.803Z,24.84
2022-08-26T04:25:00.378Z,24.86
2022-08-26T04:27:27.198Z,24.89
2022-08-26T04:29:55.281Z,24.87
2022-08-26T04:32:22.069Z,24.86
2022-08-26T04:34:48.811Z,24.83
2022-08-26T04:37:16.305Z,24.79
2022-08-26T04:39:44.583Z,24.74
2022-08-26T04:42:13.380Z,24.70
2022-08-26T04:44:41.049Z,24.65
2022-08-26T04:47:07.700Z,24.64
2022-08-26T04:49:35.751Z,24.66
2022-08-26T04:52:02.700Z,24.68
2022-08-26T04:54:29.261Z,24.79
2022-08-26T04:56:55.906Z,24.88
2022-08-26T04:59:22.935Z,24.94
2022-08-26T05:01:52.268Z,24.97
2022-08-26T05:04:19.643Z,25.03
2022-08-26T05:06:47.118Z,25.03
2022-08-26T05:09:15.345Z,24.98
2022-08-26T05:11:41.960Z,24.91
2022-08-26T05:14:08.699Z,24.91
2022-08-26T05:16:35.300Z,24.91
2022-08-26T05:19:03.510Z,24.84
2022-08-26T05:21:30.181Z,24.80
2022-08-26T05:23:57.373Z,24.81
2022-08-26T05:26:29.250Z,24.76
2022-08-26T05:28:56.478Z,24.76
2022-08-26T05:31:24.377Z,24.79
2022-08-26T05:33:51.224Z,24.84
2022-08-26T05:36:21.573Z,24.89
2022-08-26T05:38:48.711Z,24.95
2022-08-26T05:41:16.747Z,25.00
2022-08-26T05:43:43.657Z,25.03
2022-08-26T05:46:10.605Z,25.04
2022-08-26T05:48:37.295Z,25.02
2022-08-26T05:51:08.520Z,24.95
2022-08-26T05:53:35.556Z,24.84
2022-08-26T05:56:02.905Z,24.76
2022-08-26T05:58:29.531Z,24.77
2022-08-26T06:00:57.786Z,24.76
2022-08-26T06:03:24.359Z,24.72
2022-08-26T06:05:50.904Z,24.74
2022-08-26T06:08:19.292Z,24.79
2022-08-26T06:10:51.007Z,24.80
2022-08-26T06:13:20.299Z,24.82
2022-08-26T06:15:48.337Z,24.78
2022-08-26T06:18:16.709Z,24.78
2022-08-26T06:20:49.564Z,24.85
2022-08-26T06:23:42.927Z,24.96
2022-08-26T06:26:11.082Z,25.03
2022-08-26T06:28:37.808Z,25.07
2022-08-26T06:31:06.038Z,25.07
2022-08-26T06:33:33.269Z,25.06
2022-08-26T06:36:01.091Z,25.08
2022-08-26T06:38:27.829Z,25.12
2022-08-26T06:40:59.680Z,25.27
2022-08-26T06:43:27.486Z,25.40
2022-08-26T06:46:04.288Z,25.60
2022-08-26T06:48:31.873Z,25.88
2022-08-26T06:51:09.577Z,26.61
2022-08-26T06:53:36.852Z,27.76
2022-08-26T06:56:07.851Z,28.67
2022-08-26T06:58:37.878Z,28.37
2022-08-26T07:01:09.533Z,27.91
2022-08-26T07:03:39.699Z,27.57
2022-08-26T07:06:06.669Z,27.33
2022-08-26T07:08:33.834Z,27.28
2022-08-26T07:11:04.274Z,27.39
2022-08-26T07:13:31.557Z,27.30
2022-08-26T07:15:58.175Z,27.16
2022-08-26T07:18:29.489Z,27.19
2022-08-26T07:20:56.157Z,27.19
2022-08-26T07:23:22.981Z,27.05
2022-08-26T07:25:49.733Z,26.96
2022-08-26T07:28:16.432Z,26.92
2022-08-26T07:30:43.452Z,26.97
2022-08-26T07:33:10.026Z,27.15
2022-08-26T07:35:37.840Z,27.36
2022-08-26T07:38:04.334Z,27.42
2022-08-26T07:40:32.092Z,27.36
2022-08-26T07:42:58.696Z,27.30
2022-08-26T07:45:27.686Z,27.29
2022-08-26T07:47:54.351Z,27.33
2022-08-26T07:50:22.338Z,27.38
2022-08-26T07:53:10.611Z,27.26
2022-08-26T07:55:37.466Z,27.20
2022-08-26T07:58:05.577Z,27.20
2022-08-26T08:00:33.043Z,27.33
2022-08-26T08:03:03.892Z,27.45
2022-08-26T08:05:33.487Z,27.59
2022-08-26T08:08:17.335Z,27.67
2022-08-26T08:10:48.923Z,27.77
2022-08-26T08:13:18.079Z,27.88
2022-08-26T08:15:48.296Z,28.01
2022-08-26T08:18:17.430Z,28.26
2022-08-26T08:20:47.638Z,28.40
2022-08-26T08:23:31.632Z,28.58
2022-08-26T08:26:02.645Z,28.83
2022-08-26T08:28:29.206Z,29.18
2022-08-26T08:30:56.444Z,29.48
2022-08-26T08:33:24.453Z,29.66
2022-08-26T08:35:51.037Z,29.92
2022-08-26T08:38:17.861Z,30.33
2022-08-26T08:40:45.513Z,30.79
2022-08-26T08:43:15.892Z,31.74
2022-08-26T08:45:45.001Z,32.15
2022-08-26T08:48:27.677Z,32.19
2022-08-26T08:51:05.056Z,31.97
2022-08-26T08:53:33.921Z,31.34
2022-08-26T08:56:26.341Z,31.25
2022-08-26T08:59:11.550Z,31.17
2022-08-26T09:01:52.579Z,31.18
2022-08-26T09:04:20.815Z,31.32
2022-08-26T09:06:49.232Z,30.94
2022-08-26T09:09:24.045Z,30.59
2022-08-26T09:11:50.596Z,31.35
2022-08-26T09:14:17.693Z,33.23
2022-08-26T09:17:01.500Z,34.08
2022-08-26T09:19:32.082Z,33.28
2022-08-26T09:21:59.661Z,32.84
2022-08-26T09:24:28.643Z,32.67
2022-08-26T09:26:58.264Z,33.05
2022-08-26T09:29:26.538Z,34.23
2022-08-26T09:32:12.930Z,33.88
2022-08-26T09:34:52.148Z,33.45
2022-08-26T09:37:32.526Z,34.10
2022-08-26T09:40:23.250Z,36.60
2022-08-26T09:43:07.731Z,36.85
2022-08-26T09:45:35.782Z,35.86
2022-08-26T09:48:02.862Z,35.00
2022-08-26T09:50:36.153Z,34.22
2022-08-26T09:53:09.883Z,33.80
2022-08-26T09:55:41.929Z,33.62
2022-08-26T09:58:12.291Z,33.52
2022-08-26T10:00:41.078Z,33.49
2022-08-26T10:03:10.829Z,35.64
2022-08-26T10:05:37.469Z,35.39
2022-08-26T10:08:26.643Z,35.51
2022-08-26T10:10:55.317Z,36.85
2022-08-26T10:13:29.488Z,41.25
2022-08-26T10:16:00.487Z,44.61
2022-08-26T10:18:47.953Z,47.20
2022-08-26T10:21:25.879Z,49.57
2022-08-26T10:23:55.439Z,51.01
2022-08-26T10:26:40.347Z,51.43
2022-08-26T10:29:07.860Z,52.22
2022-08-26T10:31:44.696Z,51.88
2022-08-26T10:34:13.892Z,52.12
2022-08-26T10:37:15.041Z,52.19
2022-08-26T10:40:03.090Z,53.17
2022-08-26T10:42:33.370Z,54.00
2022-08-26T10:45:03.286Z,54.14
2022-08-26T10:47:52.193Z,54.34
2022-08-26T10:50:19.786Z,54.47
2022-08-26T10:53:06.108Z,54.27
2022-08-26T10:55:39.567Z,54.42
2022-08-26T10:58:26.653Z,54.05
2022-08-26T11:01:41.741Z,54.26
2022-08-26T11:04:14.484Z,53.30
2022-08-26T11:06:41.875Z,53.59
2022-08-26T11:09:08.786Z,53.11
2022-08-26T11:11:41.403Z,53.19
2022-08-26T11:14:31.422Z,53.87
2022-08-26T11:17:08.949Z,54.50
2022-08-26T11:19:50.857Z,54.34
2022-08-26T11:22:26.871Z,54.65
2022-08-26T11:24:53.449Z,53.95
2022-08-26T11:27:25.988Z,54.17
2022-08-26T11:30:11.300Z,54.57
2022-08-26T11:32:39.983Z,54.98
2022-08-26T11:35:06.580Z,55.34
2022-08-26T11:37:40.626Z,55.79
2022-08-26T11:40:21.895Z,55.65
2022-08-26T11:43:05.575Z,55.19
2022-08-26T11:45:45.705Z,54.92
2022-08-26T11:48:20.150Z,54.04
2022-08-26T11:50:53.893Z,54.67
2022-08-26T11:53:21.213Z,55.09
2022-08-26T11:55:51.822Z,55.20
2022-08-26T11:58:20.443Z,55.51
2022-08-26T12:00:58.449Z,54.96
2022-08-26T12:03:31.422Z,53.75
2022-08-26T12:05:58.763Z,53.58
2022-08-26T12:08:27.918Z,51.58
2022-08-26T12:11:09.148Z,50.44
2022-08-26T12:13:39.252Z,48.43
2022-08-26T12:16:06.309Z,47.79
2022-08-26T12:18:34.465Z,47.16
2022-08-26T12:21:10.462Z,48.05
2022-08-26T12:23:41.365Z,47.84
2022-08-26T12:26:11.538Z,45.55
2022-08-26T12:28:53.944Z,43.16
2022-08-26T12:31:22.807Z,41.81
2022-08-26T12:33:49.938Z,41.06
2022-08-26T12:36:21.937Z,40.29
2022-08-26T12:38:48.832Z,39.49
2022-08-26T12:41:34.253Z,39.26
2022-08-26T12:44:00.910Z,38.72
2022-08-26T12:46:28.830Z,38.29
2022-08-26T12:49:01.034Z,37.95
2022-08-26T12:51:29.075Z,37.74
2022-08-26T12:53:56.020Z,37.78
2022-08-26T12:56:39.440Z,37.75
2022-08-26T12:59:10.257Z,37.65
2022-08-26T13:01:40.826Z,37.36
2022-08-26T13:04:07.591Z,37.10
2022-08-26T13:06:35.077Z,37.07
2022-08-26T13:09:27.827Z,37.03
2022-08-26T13:11:54.287Z,36.78
2022-08-26T13:14:24.376Z,36.75
2022-08-26T13:16:53.275Z,36.60
2022-08-26T13:19:22.156Z,36.73
2022-08-26T13:21:50.611Z,36.96
2022-08-26T13:24:19.805Z,36.65
2022-08-26T13:26:47.279Z,36.10
2022-08-26T13:29:13.918Z,36.28
2022-08-26T13:31:41.680Z,36.56
2022-08-26T13:34:09.749Z,36.53
2022-08-26T13:36:36.653Z,36.38
2022-08-26T13:39:03.781Z,36.40
2022-08-26T13:41:31.958Z,36.37
2022-08-26T13:43:59.484Z,36.83
2022-08-26T13:46:26.790Z,36.97
2022-08-26T13:48:55.920Z,37.10
2022-08-26T13:51:22.938Z,37.28
2022-08-26T13:53:52.870Z,37.40
2022-08-26T13:56:19.735Z,37.66
2022-08-26T13:58:46.931Z,37.76
2022-08-26T14:01:14.468Z,37.90
2022-08-26T14:03:41.713Z,37.72
2022-08-26T14:06:08.794Z,37.42
2022-08-26T14:08:36.881Z,37.02
2022-08-26T14:11:03.410Z,36.88
2022-08-26T14:13:29.990Z,36.68
2022-08-26T14:15:58.722Z,36.50
2022-08-26T14:18:31.052Z,36.50
2022-08-26T14:20:58.174Z,36.45
2022-08-26T14:23:25.508Z,36.40
2022-08-26T14:25:52.713Z,35.91
2022-08-26T14:28:19.280Z,35.54
2022-08-26T14:30:50.158Z,35.43
2022-08-26T14:33:18.531Z,35.58
2022-08-26T14:35:48.809Z,35.75
2022-08-26T14:38:16.852Z,35.83
2022-08-26T14:40:44.960Z,35.65
2022-08-26T14:43:13.812Z,35.48
2022-08-26T14:48:09.670Z,35.24
2022-08-26T14:50:36.450Z,35.09
2022-08-26T14:53:21.825Z,35.04
2022-08-26T14:55:48.739Z,35.19
2022-08-26T14:58:15.337Z,35.43
2022-08-26T15:00:42.153Z,35.63
2022-08-26T15:03:09.135Z,35.64
2022-08-26T15:05:35.764Z,35.70
2022-08-26T15:08:10.359Z,35.75
2022-08-26T15:10:37.452Z,35.71
2022-08-26T15:13:04.293Z,35.62
2022-08-26T15:15:30.978Z,35.66
2022-08-26T15:17:57.536Z,35.49
2022-08-26T15:20:24.291Z,35.27
2022-08-26T15:22:50.873Z,35.11
2022-08-26T15:25:17.874Z,34.80
2022-08-26T15:27:44.621Z,34.49
2022-08-26T15:30:11.986Z,34.25
2022-08-26T15:32:38.549Z,34.03
2022-08-26T15:35:08.818Z,33.82
2022-08-26T15:37:35.986Z,33.67
2022-08-26T15:40:02.922Z,33.59
2022-08-26T15:42:29.695Z,33.38
2022-08-26T15:44:56.239Z,33.34
2022-08-26T15:47:23.790Z,33.20
2022-08-26T15:49:50.504Z,33.18
2022-08-26T15:52:17.343Z,33.18
2022-08-26T15:54:43.973Z,33.26
2022-08-26T15:57:15.316Z,33.35
2022-08-26T15:59:43.074Z,33.48
2022-08-26T16:02:09.821Z,33.61
2022-08-26T16:04:36.966Z,33.57
2022-08-26T16:07:04.231Z,33.26
2022-08-26T16:09:31.011Z,32.72
2022-08-26T16:11:58.422Z,32.60
2022-08-26T16:14:25.156Z,32.50
2022-08-26T16:16:51.834Z,32.42
2022-08-26T16:19:18.609Z,32.21
2022-08-26T16:21:45.365Z,32.08
2022-08-26T16:24:12.747Z,31.73
2022-08-26T16:26:40.498Z,31.55
2022-08-26T16:29:08.653Z,31.28
2022-08-26T16:31:35.508Z,31.20
2022-08-26T16:34:02.183Z,31.13
2022-08-26T16:36:28.780Z,30.93
2022-08-26T16:38:56.637Z,30.72
2022-08-26T16:41:24.348Z,30.52
2022-08-26T16:43:51.510Z,30.37
2022-08-26T16:46:18.813Z,30.26
2022-08-26T16:48:45.820Z,30.18
2022-08-26T16:51:18.897Z,30.10
2022-08-26T16:53:45.809Z,29.85
2022-08-26T16:56:16.373Z,29.80
2022-08-26T16:58:42.932Z,29.71
2022-08-26T17:01:09.565Z,29.64
2022-08-26T17:03:36.147Z,29.58
2022-08-26T17:06:02.727Z,29.49
2022-08-26T17:08:30.420Z,29.47
2022-08-26T17:10:59.323Z,29.43
2022-08-26T17:13:35.364Z,29.41
2022-08-26T17:16:04.242Z,29.38
2022-08-26T17:18:31.023Z,29.49
2022-08-26T17:21:00.326Z,29.39
2022-08-26T17:23:26.904Z,29.22
2022-08-26T17:25:53.591Z,29.16
2022-08-26T17:28:20.199Z,29.03
2022-08-26T17:30:46.728Z,28.98
2022-08-26T17:33:13.378Z,28.89
2022-08-26T17:35:40.139Z,28.86
2022-08-26T17:38:07.280Z,28.73
2022-08-26T17:40:35.003Z,28.71
2022-08-26T17:43:01.674Z,28.73
2022-08-26T17:45:28.986Z,28.76
2022-08-26T17:47:56.004Z,28.77
2022-08-26T17:50:23.117Z,28.79
2022-08-26T17:52:49.834Z,28.78
2022-08-26T17:55:18.130Z,28.70
2022-08-26T17:57:47.745Z,28.63
2022-08-26T18:00:21.711Z,28.70
2022-08-26T18:02:51.327Z,28.73
2022-08-26T18:05:18.179Z,28.74
2022-08-26T18:07:44.921Z,28.73
2022-08-26T18:10:13.580Z,28.75
2022-08-26T18:12:41.044Z,28.71
2022-08-26T18:15:08.304Z,28.59
2022-08-26T18:17:35.128Z,28.57
2022-08-26T18:20:01.971Z,28.61
2022-08-26T18:22:28.861Z,28.58
2022-08-26T18:24:59.076Z,28.55
2022-08-26T18:27:26.458Z,28.66
2022-08-26T18:29:53.069Z,28.66
2022-08-26T18:32:19.681Z,28.66
2022-08-26T18:34:46.309Z,28.62
2022-08-26T18:37:14.419Z,28.57
2022-08-26T18:39:41.754Z,28.49
2022-08-26T18:42:08.926Z,28.48
2022-08-26T18:44:35.680Z,28.43
2022-08-26T18:47:02.478Z,28.37
2022-08-26T18:49:29.382Z,28.31
2022-08-26T18:51:56.017Z,28.31
2022-08-26T18:54:22.931Z,28.23
2022-08-26T18:56:55.575Z,28.21
2022-08-26T18:59:29.582Z,28.20
2022-08-26T19:01:57.415Z,28.16
2022-08-26T19:04:24.351Z,28.14
2022-08-26T19:06:51.400Z,28.16
2022-08-26T19:09:21.206Z,28.10
2022-08-26T19:11:49.590Z,28.07
2022-08-26T19:14:16.713Z,28.05
2022-08-26T19:16:46.352Z,27.99
2022-08-26T19:19:13.262Z,27.93
2022-08-26T19:21:40.347Z,27.87
2022-08-26T19:24:09.314Z,27.81
2022-08-26T19:26:36.826Z,27.69
2022-08-26T19:29:03.630Z,27.64
2022-08-26T19:31:31.301Z,27.61
2022-08-26T19:34:01.045Z,27.57
2022-08-26T19:36:28.480Z,27.49
2022-08-26T19:38:56.522Z,27.40
2022-08-26T19:41:31.657Z,27.32
2022-08-26T19:44:05.018Z,27.28
2022-08-26T19:46:32.351Z,27.24
2022-08-26T19:48:58.957Z,27.25
2022-08-26T19:51:28.449Z,27.26
2022-08-26T19:53:56.266Z,27.27
2022-08-26T19:56:22.945Z,27.33
2022-08-26T19:58:50.170Z,27.35
2022-08-26T20:01:17.800Z,27.38
2022-08-26T20:03:45.003Z,27.38
2022-08-26T20:06:12.432Z,27.39
2022-08-26T20:08:40.008Z,27.39
2022-08-26T20:11:09.450Z,27.32
2022-08-26T20:13:36.656Z,27.23
2022-08-26T20:16:03.515Z,27.24
2022-08-26T20:18:48.688Z,27.31
2022-08-26T20:21:26.966Z,27.29
2022-08-26T20:23:59.192Z,27.30
2022-08-26T20:26:26.711Z,27.27
2022-08-26T20:28:53.796Z,27.24
2022-08-26T20:31:20.492Z,27.17
2022-08-26T20:33:47.071Z,27.09
2022-08-26T20:36:14.816Z,27.02
2022-08-26T20:38:41.374Z,26.98
2022-08-26T20:41:08.044Z,26.88
2022-08-26T20:43:34.570Z,26.86
2022-08-26T20:46:01.391Z,26.86
2022-08-26T20:48:28.060Z,26.88
2022-08-26T20:50:59.306Z,26.86
2022-08-26T20:53:27.328Z,26.79
2022-08-26T20:55:54.926Z,26.74
2022-08-26T20:58:23.579Z,26.65
2022-08-26T21:00:50.126Z,26.63
2022-08-26T21:03:16.717Z,26.65
2022-08-26T21:05:43.258Z,26.66
2022-08-26T21:08:13.536Z,26.64
2022-08-26T21:10:40.377Z,26.59
2022-08-26T21:13:07.083Z,26.52
2022-08-26T21:15:35.136Z,26.55
2022-08-26T21:18:01.756Z,26.50
2022-08-26T21:20:28.304Z,26.47
2022-08-26T21:22:54.862Z,26.44
2022-08-26T21:25:21.569Z,26.40
2022-08-26T21:27:48.096Z,26.37
2022-08-26T21:30:15.225Z,26.38
2022-08-26T21:32:42.060Z,26.39
2022-08-26T21:35:08.895Z,26.40
2022-08-26T21:37:35.527Z,26.42
2022-08-26T21:40:03.546Z,26.39
2022-08-26T21:42:31.691Z,26.41
2022-08-26T21:44:58.628Z,26.42
2022-08-26T21:47:25.214Z,26.41
2022-08-26T21:49:52.305Z,26.37
2022-08-26T21:52:18.883Z,26.36
2022-08-26T21:54:49.415Z,26.40
2022-08-26T21:57:16.600Z,26.44
2022-08-26T21:59:43.104Z,26.42
2022-08-26T22:02:10.954Z,26.40
2022-08-26T22:04:37.678Z,26.37
2022-08-26T22:07:04.937Z,26.34
2022-08-26T22:09:31.622Z,26.32
2022-08-26T22:11:58.625Z,26.27
2022-08-26T22:14:30.687Z,26.24
2022-08-26T22:16:58.610Z,26.27
2022-08-26T22:19:25.220Z,26.23
2022-08-26T22:21:53.200Z,26.18
2022-08-26T22:24:20.895Z,26.17
2022-08-26T22:26:48.123Z,26.13
2022-08-26T22:29:14.992Z,26.12
2022-08-26T22:31:43.533Z,26.09
2022-08-26T22:34:11.535Z,26.11
2022-08-26T22:36:43.324Z,26.08
2022-08-26T22:39:12.399Z,26.04
2022-08-26T22:41:39.153Z,26.02
2022-08-26T22:44:05.769Z,26.01
2022-08-26T22:46:34.846Z,25.99
2022-08-26T22:49:01.420Z,25.99
2022-08-26T22:51:28.330Z,26.01
2022-08-26T22:53:54.900Z,25.98
2022-08-26T22:56:22.048Z,26.00
2022-08-26T22:58:48.595Z,26.02
2022-08-26T23:01:16.834Z,26.05
2022-08-26T23:03:43.971Z,25.96
2022-08-26T23:06:13.109Z,25.90
2022-08-26T23:08:41.964Z,25.87
2022-08-26T23:11:09.800Z,25.82
2022-08-26T23:13:36.599Z,25.80
2022-08-26T23:16:04.577Z,25.81
2022-08-26T23:18:31.403Z,25.78
2022-08-26T23:20:57.983Z,25.71
2022-08-26T23:23:24.610Z,25.65
2022-08-26T23:25:51.434Z,25.65
2022-08-26T23:28:17.878Z,25.63
2022-08-26T23:30:44.383Z,25.55
2022-08-26T23:33:11.047Z,25.48
2022-08-26T23:35:37.582Z,25.42
2022-08-26T23:38:06.737Z,25.44
2022-08-26T23:40:36.863Z,25.41
2022-08-26T23:43:04.812Z,25.38
2022-08-26T23:45:31.898Z,25.41
2022-08-26T23:47:59.103Z,25.37
2022-08-26T23:50:49.210Z,25.30
2022-08-26T23:53:19.445Z,25.21
2022-08-26T23:55:48.266Z,25.11
2022-08-26T23:58:19.134Z,25.07
